Time;durP1;ratioP1;P1;durP2;ratioP2;P2;SDS_P1;SDS_P2;PMS_P1;PMS_P2;Temp;Humidity;BMP_temperature;BMP_pressure;BME280_temperature;BME280_humidity;BME280_pressure;Samples;Min_cycle;Max_cycle;Signal;HPM_P1;HPM_P2
2023/10/23 00:01:55;;;;;;;6.57;3.70;;;;;;;;;;4915224;29;20693;-64
2023/10/23 00:04:25;;;;;;;4.00;3.50;;;;;;;;;;4920784;29;20201;-62
2023/10/23 00:06:53;;;;;;;3.45;3.00;;;;;;;;;;4920679;29;20212;-63
2023/10/23 00:09:21;;;;;;;4.72;3.40;;;;;;;;;;4924169;29;20221;-63
2023/10/23 00:11:49;;;;;;;7.70;4.57;;;;;;;;;;4929301;29;20205;-64
2023/10/23 00:14:18;;;;;;;5.78;3.35;;;;;;;;;;4933809;29;20209;-63
2023/10/23 00:16:46;;;;;;;5.70;4.20;;;;;;;;;;4931505;29;20240;-63
2023/10/23 00:19:14;;;;;;;4.85;3.50;;;;;;;;;;4934552;29;20203;-63
2023/10/23 00:21:44;;;;;;;6.82;3.58;;;;;;;;;;4935043;29;20208;-63
2023/10/23 00:24:12;;;;;;;5.95;4.50;;;;;;;;;;4925565;29;20209;-63
2023/10/23 00:26:41;;;;;;;10.00;5.25;;;;;;;;;;4933184;29;20218;-63
2023/10/23 00:29:09;;;;;;;8.50;5.10;;;;;;;;;;4934917;29;20224;-64
2023/10/23 00:31:37;;;;;;;5.28;3.58;;;;;;;;;;4937779;29;20210;-64
2023/10/23 00:34:06;;;;;;;8.38;3.88;;;;;;;;;;4937057;29;20209;-64
2023/10/23 00:36:34;;;;;;;5.20;4.13;;;;;;;;;;4934196;29;20204;-64
2023/10/23 00:39:03;;;;;;;4.82;4.07;;;;;;;;;;4908508;29;20212;-63
2023/10/23 00:41:32;;;;;;;6.60;4.22;;;;;;;;;;4918254;29;20213;-64
2023/10/23 00:44:01;;;;;;;7.90;4.05;;;;;;;;;;4932695;29;20232;-63
2023/10/23 00:46:30;;;;;;;10.15;4.00;;;;;;;;;;4937805;29;20672;-64
2023/10/23 00:48:59;;;;;;;7.28;6.45;;;;;;;;;;4937510;29;20228;-64
2023/10/23 00:51:29;;;;;;;7.85;4.25;;;;;;;;;;4937967;29;20212;-63
2023/10/23 00:53:56;;;;;;;4.43;4.07;;;;;;;;;;4937465;29;20223;-64
2023/10/23 00:56:26;;;;;;;5.95;4.13;;;;;;;;;;4937779;29;20209;-63
2023/10/23 00:58:54;;;;;;;6.80;3.92;;;;;;;;;;4936048;29;20209;-63
2023/10/23 01:01:23;;;;;;;6.68;4.32;;;;;;;;;;4936567;29;20215;-65
2023/10/23 01:03:51;;;;;;;7.60;4.00;;;;;;;;;;4935184;29;20204;-65
2023/10/23 01:06:19;;;;;;;6.60;4.28;;;;;;;;;;4936483;29;20213;-65
2023/10/23 01:08:47;;;;;;;5.75;4.10;;;;;;;;;;4936487;29;20605;-65
2023/10/23 01:11:16;;;;;;;6.22;3.95;;;;;;;;;;4936827;29;20212;-64
2023/10/23 01:13:46;;;;;;;8.10;4.40;;;;;;;;;;4937204;29;20298;-65
2023/10/23 01:16:14;;;;;;;4.70;3.72;;;;;;;;;;4936989;29;20250;-65
2023/10/23 01:18:42;;;;;;;8.43;4.78;;;;;;;;;;4936090;29;20193;-65
2023/10/23 01:21:14;;;;;;;6.40;4.47;;;;;;;;;;4931663;29;20198;-65
2023/10/23 01:23:43;;;;;;;4.03;3.63;;;;;;;;;;4917776;29;20216;-65
2023/10/23 01:26:13;;;;;;;5.97;3.97;;;;;;;;;;4917642;29;20676;-65
2023/10/23 01:28:41;;;;;;;4.88;3.70;;;;;;;;;;4916123;29;20605;-65
2023/10/23 01:31:10;;;;;;;12.38;4.30;;;;;;;;;;4934673;29;20283;-64
2023/10/23 01:33:40;;;;;;;5.55;4.40;;;;;;;;;;4936511;29;20226;-65
2023/10/23 01:36:08;;;;;;;7.07;3.67;;;;;;;;;;4933612;29;20196;-64
2023/10/23 01:38:36;;;;;;;5.88;3.53;;;;;;;;;;4929585;29;20207;-63
2023/10/23 01:41:04;;;;;;;4.32;3.60;;;;;;;;;;4931456;29;20690;-65
2023/10/23 01:43:34;;;;;;;6.18;4.10;;;;;;;;;;4931706;29;20229;-64
2023/10/23 01:46:02;;;;;;;5.35;3.50;;;;;;;;;;4925119;29;20216;-65
2023/10/23 01:48:30;;;;;;;7.88;3.75;;;;;;;;;;4930201;29;20205;-65
2023/10/23 01:51:02;;;;;;;4.80;4.40;;;;;;;;;;4916414;29;20205;-64
2023/10/23 01:53:30;;;;;;;10.07;3.70;;;;;;;;;;4916824;29;20200;-64
2023/10/23 01:55:58;;;;;;;7.63;4.00;;;;;;;;;;4924870;29;20205;-65
2023/10/23 01:58:27;;;;;;;8.65;4.00;;;;;;;;;;4931526;29;20209;-65
2023/10/23 02:00:55;;;;;;;4.32;3.92;;;;;;;;;;4917133;29;20573;-65
2023/10/23 02:03:23;;;;;;;9.73;4.60;;;;;;;;;;4916766;29;20232;-64
2023/10/23 02:05:56;;;;;;;5.55;4.18;;;;;;;;;;4937109;29;20219;-65
2023/10/23 02:08:24;;;;;;;4.38;4.00;;;;;;;;;;4935753;29;20275;-65
2023/10/23 02:10:53;;;;;;;5.72;4.63;;;;;;;;;;4919847;29;20198;-64
2023/10/23 02:13:21;;;;;;;3.80;3.40;;;;;;;;;;4917704;29;20212;-64
2023/10/23 02:15:50;;;;;;;7.80;4.53;;;;;;;;;;4915325;29;20245;-64
2023/10/23 02:18:19;;;;;;;6.18;3.70;;;;;;;;;;4920246;29;20680;-64
2023/10/23 02:20:48;;;;;;;8.63;4.28;;;;;;;;;;4928892;29;20259;-64
2023/10/23 02:23:16;;;;;;;7.63;4.30;;;;;;;;;;4935028;29;20562;-64
2023/10/23 02:25:44;;;;;;;6.88;4.10;;;;;;;;;;4918118;29;20765;-64
2023/10/23 02:28:13;;;;;;;6.10;4.30;;;;;;;;;;4928005;29;20213;-65
2023/10/23 02:30:42;;;;;;;4.53;3.40;;;;;;;;;;4935110;29;20592;-64
2023/10/23 02:33:10;;;;;;;5.65;3.35;;;;;;;;;;4926804;29;20287;-64
2023/10/23 02:35:39;;;;;;;7.28;4.32;;;;;;;;;;4923520;29;20203;-64
2023/10/23 02:38:08;;;;;;;8.05;3.78;;;;;;;;;;4936760;29;20212;-65
2023/10/23 02:40:36;;;;;;;7.35;4.88;;;;;;;;;;4933928;29;20219;-65
2023/10/23 02:43:04;;;;;;;10.40;4.10;;;;;;;;;;4929037;29;20225;-64
2023/10/23 02:45:33;;;;;;;8.73;5.03;;;;;;;;;;4931193;29;20215;-65
2023/10/23 02:48:02;;;;;;;11.02;5.00;;;;;;;;;;4936212;29;20668;-65
2023/10/23 02:50:30;;;;;;;6.25;4.68;;;;;;;;;;4933819;29;20212;-64
2023/10/23 02:52:59;;;;;;;7.15;4.57;;;;;;;;;;4924295;29;20209;-65
2023/10/23 02:55:28;;;;;;;13.00;6.70;;;;;;;;;;4925557;29;20197;-65
2023/10/23 02:57:56;;;;;;;7.20;6.60;;;;;;;;;;4934992;29;21350;-64
2023/10/23 03:00:24;;;;;;;5.95;5.10;;;;;;;;;;4934621;29;20208;-64
2023/10/23 03:02:52;;;;;;;10.30;6.82;;;;;;;;;;4930707;29;20207;-64
2023/10/23 03:05:20;;;;;;;23.08;18.60;;;;;;;;;;4924976;29;20213;-64
2023/10/23 03:07:50;;;;;;;9.88;7.30;;;;;;;;;;4917570;29;20200;-64
2023/10/23 03:10:20;;;;;;;9.63;5.18;;;;;;;;;;4925493;29;20708;-64
2023/10/23 03:12:48;;;;;;;7.28;4.50;;;;;;;;;;4923712;29;20201;-64
2023/10/23 03:15:16;;;;;;;8.35;5.85;;;;;;;;;;4927140;29;20229;-65
2023/10/23 03:17:44;;;;;;;7.55;6.80;;;;;;;;;;4916945;29;20557;-65
2023/10/23 03:20:14;;;;;;;5.55;5.05;;;;;;;;;;4916985;29;20213;-64
2023/10/23 03:22:42;;;;;;;7.85;5.53;;;;;;;;;;4934833;29;20235;-64
2023/10/23 03:25:11;;;;;;;4.60;3.90;;;;;;;;;;4933459;29;20208;-64
2023/10/23 03:27:41;;;;;;;4.47;4.05;;;;;;;;;;4931117;29;20207;-64
2023/10/23 03:30:09;;;;;;;6.10;4.55;;;;;;;;;;4914942;29;20700;-64
2023/10/23 03:32:38;;;;;;;4.68;3.95;;;;;;;;;;4934402;29;20212;-64
2023/10/23 03:35:06;;;;;;;4.45;3.45;;;;;;;;;;4935004;29;20240;-64
2023/10/23 03:37:34;;;;;;;4.85;3.75;;;;;;;;;;4917570;29;20220;-64
2023/10/23 03:40:03;;;;;;;3.90;3.60;;;;;;;;;;4923227;29;20200;-65
2023/10/23 03:42:31;;;;;;;4.80;4.30;;;;;;;;;;4921053;29;20215;-65
2023/10/23 03:45:01;;;;;;;6.15;4.53;;;;;;;;;;4914218;29;20209;-64
2023/10/23 03:47:29;;;;;;;7.57;3.88;;;;;;;;;;4914657;29;20209;-64
2023/10/23 03:49:57;;;;;;;8.30;6.68;;;;;;;;;;4932672;29;20221;-65
2023/10/23 03:52:25;;;;;;;4.97;4.47;;;;;;;;;;4933643;29;20928;-64
2023/10/23 03:54:53;;;;;;;3.58;3.20;;;;;;;;;;4930751;29;20213;-64
2023/10/23 03:57:22;;;;;;;7.68;4.03;;;;;;;;;;4930598;29;20204;-65
2023/10/23 03:59:50;;;;;;;6.20;3.47;;;;;;;;;;4931484;29;20267;-65
2023/10/23 04:02:19;;;;;;;8.10;3.20;;;;;;;;;;4933621;29;20208;-65
2023/10/23 04:04:47;;;;;;;5.82;3.92;;;;;;;;;;4932313;29;20211;-65
2023/10/23 04:07:16;;;;;;;10.68;3.20;;;;;;;;;;4920080;29;20275;-62
2023/10/23 04:09:44;;;;;;;6.03;4.53;;;;;;;;;;4922717;29;20205;-61
2023/10/23 04:12:12;;;;;;;12.55;5.40;;;;;;;;;;4921621;29;20642;-62
2023/10/23 04:14:40;;;;;;;7.88;3.30;;;;;;;;;;4922399;29;20217;-62
2023/10/23 04:17:09;;;;;;;3.63;3.13;;;;;;;;;;4939792;29;20213;-60
2023/10/23 04:19:39;;;;;;;4.32;3.63;;;;;;;;;;4936707;29;20207;-62
2023/10/23 04:22:07;;;;;;;9.82;4.05;;;;;;;;;;4940823;29;20212;-62
2023/10/23 04:24:35;;;;;;;3.83;3.53;;;;;;;;;;4938664;29;20208;-61
2023/10/23 04:27:03;;;;;;;15.38;5.72;;;;;;;;;;4928608;29;20208;-61
2023/10/23 04:29:32;;;;;;;14.57;5.82;;;;;;;;;;4937001;29;20211;-61
2023/10/23 04:32:00;;;;;;;12.23;6.30;;;;;;;;;;4928407;29;20201;-62
2023/10/23 04:34:28;;;;;;;18.30;6.82;;;;;;;;;;4920813;29;20788;-62
2023/10/23 04:36:58;;;;;;;34.22;7.68;;;;;;;;;;4933223;29;20563;-62
2023/10/23 04:39:26;;;;;;;20.40;7.35;;;;;;;;;;4939402;29;20556;-62
2023/10/23 04:41:55;;;;;;;18.48;7.25;;;;;;;;;;4936130;29;20648;-62
2023/10/23 04:44:25;;;;;;;11.70;6.93;;;;;;;;;;4920018;29;20232;-61
2023/10/23 04:46:53;;;;;;;21.00;7.07;;;;;;;;;;4932144;29;20219;-62
2023/10/23 04:49:21;;;;;;;10.20;6.65;;;;;;;;;;4927968;29;20621;-62
2023/10/23 04:51:49;;;;;;;10.88;7.30;;;;;;;;;;4938937;29;20224;-62
2023/10/23 04:54:19;;;;;;;8.48;7.63;;;;;;;;;;4930734;29;20269;-62
2023/10/23 04:56:47;;;;;;;10.32;7.68;;;;;;;;;;4922649;29;20201;-64
2023/10/23 04:59:15;;;;;;;16.73;7.47;;;;;;;;;;4921310;29;20205;-61
2023/10/23 05:01:44;;;;;;;8.20;6.47;;;;;;;;;;4931845;29;20224;-64
2023/10/23 05:04:12;;;;;;;7.72;6.82;;;;;;;;;;4938457;29;20215;-62
2023/10/23 05:06:41;;;;;;;7.25;6.35;;;;;;;;;;4931402;29;20219;-62
2023/10/23 05:09:10;;;;;;;7.07;6.38;;;;;;;;;;4932265;29;20723;-64
2023/10/23 05:11:40;;;;;;;10.13;6.40;;;;;;;;;;4939683;29;20224;-62
2023/10/23 05:14:08;;;;;;;7.55;6.75;;;;;;;;;;4939454;29;20269;-62
2023/10/23 05:16:36;;;;;;;8.85;7.30;;;;;;;;;;4936712;29;20241;-64
2023/10/23 05:19:05;;;;;;;9.13;6.70;;;;;;;;;;4939622;29;20211;-62
2023/10/23 05:21:33;;;;;;;16.98;7.10;;;;;;;;;;4935248;29;20204;-62
2023/10/23 05:24:01;;;;;;;8.80;5.80;;;;;;;;;;4924663;29;20209;-61
2023/10/23 05:26:29;;;;;;;10.27;6.10;;;;;;;;;;4932663;29;20641;-61
2023/10/23 05:28:59;;;;;;;16.35;7.00;;;;;;;;;;4919833;29;20214;-61
2023/10/23 05:31:26;;;;;;;11.43;6.85;;;;;;;;;;4921258;29;20225;-61
2023/10/23 05:33:54;;;;;;;13.02;6.55;;;;;;;;;;4937250;29;20223;-62
2023/10/23 05:36:23;;;;;;;7.28;5.75;;;;;;;;;;4936724;29;20281;-60
2023/10/23 05:38:51;;;;;;;11.57;8.07;;;;;;;;;;4939923;29;20219;-60
2023/10/23 05:41:19;;;;;;;7.25;6.28;;;;;;;;;;4927169;29;20208;-60
2023/10/23 05:43:48;;;;;;;6.80;6.15;;;;;;;;;;4920174;29;20365;-61
2023/10/23 05:46:20;;;;;;;9.90;5.60;;;;;;;;;;4924381;29;20208;-61
2023/10/23 05:48:49;;;;;;;7.55;5.53;;;;;;;;;;4934960;29;20208;-61
2023/10/23 05:51:18;;;;;;;11.35;5.90;;;;;;;;;;4929832;29;20587;-61
2023/10/23 05:53:46;;;;;;;6.32;5.72;;;;;;;;;;4925900;29;20707;-61
2023/10/23 05:56:14;;;;;;;8.55;5.05;;;;;;;;;;4920767;29;20298;-60
2023/10/23 05:58:44;;;;;;;11.30;5.53;;;;;;;;;;4918669;29;20734;-60
2023/10/23 06:01:13;;;;;;;10.65;6.00;;;;;;;;;;4919665;29;20202;-62
2023/10/23 06:03:42;;;;;;;9.07;5.78;;;;;;;;;;4922259;29;20207;-62
2023/10/23 06:06:12;;;;;;;8.48;6.13;;;;;;;;;;4922708;29;20212;-64
2023/10/23 06:08:41;;;;;;;8.02;6.32;;;;;;;;;;4933006;29;20498;-62
2023/10/23 06:11:09;;;;;;;12.55;6.00;;;;;;;;;;4926065;29;20531;-61
2023/10/23 06:13:38;;;;;;;7.18;5.70;;;;;;;;;;4919439;29;20217;-61
2023/10/23 06:16:07;;;;;;;12.63;6.10;;;;;;;;;;4918418;29;20720;-65
2023/10/23 06:18:36;;;;;;;12.73;6.65;;;;;;;;;;4925166;29;21096;-62
2023/10/23 06:21:06;;;;;;;12.02;6.35;;;;;;;;;;4936129;29;20211;-60
2023/10/23 06:23:34;;;;;;;9.20;6.47;;;;;;;;;;4933802;29;20208;-62
2023/10/23 06:26:03;;;;;;;8.07;6.38;;;;;;;;;;4930098;29;20215;-61
2023/10/23 06:28:31;;;;;;;9.43;7.55;;;;;;;;;;4932113;29;20730;-63
2023/10/23 06:31:05;;;;;;;9.32;6.78;;;;;;;;;;4932458;29;20217;-61
2023/10/23 06:33:33;;;;;;;10.85;7.88;;;;;;;;;;4918826;29;20204;-61
2023/10/23 06:36:01;;;;;;;8.60;6.63;;;;;;;;;;4922430;29;20672;-62
2023/10/23 06:38:31;;;;;;;8.65;6.75;;;;;;;;;;4931792;29;20208;-61
2023/10/23 06:41:03;;;;;;;9.52;7.15;;;;;;;;;;4921329;29;20604;-61
2023/10/23 06:43:31;;;;;;;9.23;7.47;;;;;;;;;;4920641;29;20634;-60
2023/10/23 06:45:59;;;;;;;12.63;7.50;;;;;;;;;;4918050;29;20725;-61
2023/10/23 06:48:27;;;;;;;14.82;7.32;;;;;;;;;;4931550;29;20325;-61
2023/10/23 06:50:55;;;;;;;15.50;8.65;;;;;;;;;;4926090;29;20204;-61
2023/10/23 06:53:24;;;;;;;12.35;7.03;;;;;;;;;;4938457;29;20208;-62
2023/10/23 06:55:54;;;;;;;11.68;7.53;;;;;;;;;;4934902;29;20205;-62
2023/10/23 06:58:22;;;;;;;9.88;7.80;;;;;;;;;;4929878;29;20211;-62
2023/10/23 07:00:50;;;;;;;13.82;10.15;;;;;;;;;;4936036;29;20267;-61
2023/10/23 07:03:19;;;;;;;12.30;8.05;;;;;;;;;;4936243;29;20671;-62
2023/10/23 07:05:48;;;;;;;16.15;7.28;;;;;;;;;;4934255;29;20209;-62
2023/10/23 07:08:16;;;;;;;6.65;5.95;;;;;;;;;;4937298;29;20231;-62
2023/10/23 07:10:44;;;;;;;7.50;6.72;;;;;;;;;;4934465;29;20573;-63
2023/10/23 07:13:14;;;;;;;7.32;5.68;;;;;;;;;;4937574;29;20230;-63
2023/10/23 07:15:43;;;;;;;9.80;6.60;;;;;;;;;;4937536;29;20294;-61
2023/10/23 07:18:11;;;;;;;15.43;6.07;;;;;;;;;;4937519;29;20841;-62
2023/10/23 07:20:39;;;;;;;8.40;5.68;;;;;;;;;;4930605;29;20207;-62
2023/10/23 07:23:07;;;;;;;6.60;5.97;;;;;;;;;;4929504;29;20198;-63
2023/10/23 07:25:36;;;;;;;10.23;6.03;;;;;;;;;;4929965;29;20204;-62
2023/10/23 07:28:04;;;;;;;9.05;6.20;;;;;;;;;;4939073;29;20203;-62
2023/10/23 07:30:34;;;;;;;8.68;5.47;;;;;;;;;;4924603;29;20201;-62
2023/10/23 07:33:02;;;;;;;5.47;4.97;;;;;;;;;;4919889;29;20316;-61
2023/10/23 07:35:30;;;;;;;6.85;5.63;;;;;;;;;;4919112;29;20306;-61
2023/10/23 07:37:58;;;;;;;5.28;4.78;;;;;;;;;;4923043;29;20209;-61
2023/10/23 07:40:27;;;;;;;14.88;6.18;;;;;;;;;;4930487;29;20291;-62
2023/10/23 07:42:55;;;;;;;7.80;5.85;;;;;;;;;;4936866;29;20220;-62
2023/10/23 07:45:23;;;;;;;7.47;5.55;;;;;;;;;;4928026;29;20220;-61
2023/10/23 07:47:53;;;;;;;8.25;6.38;;;;;;;;;;4937013;29;20352;-61
2023/10/23 07:50:24;;;;;;;10.57;6.60;;;;;;;;;;4938217;29;20200;-63
2023/10/23 07:52:52;;;;;;;20.50;6.18;;;;;;;;;;4938003;29;20695;-62
2023/10/23 07:55:21;;;;;;;7.40;5.60;;;;;;;;;;4938834;29;20288;-62
2023/10/23 07:57:49;;;;;;;8.15;5.35;;;;;;;;;;4928166;29;20260;-62
2023/10/23 08:00:18;;;;;;;13.00;6.13;;;;;;;;;;4920410;29;20268;-63
2023/10/23 08:02:46;;;;;;;13.80;5.20;;;;;;;;;;4917020;29;20428;-62
2023/10/23 08:05:16;;;;;;;8.90;5.68;;;;;;;;;;4919107;29;20292;-62
2023/10/23 08:07:44;;;;;;;8.57;5.10;;;;;;;;;;4923310;29;20292;-62
2023/10/23 08:10:12;;;;;;;10.32;5.20;;;;;;;;;;4925599;29;20225;-62
2023/10/23 08:12:41;;;;;;;8.15;5.00;;;;;;;;;;4931444;29;20221;-62
2023/10/23 08:15:09;;;;;;;8.77;5.53;;;;;;;;;;4924723;29;20233;-62
2023/10/23 08:17:38;;;;;;;10.57;6.47;;;;;;;;;;4930526;29;20205;-62
2023/10/23 08:20:07;;;;;;;8.82;4.95;;;;;;;;;;4936258;29;20244;-64
2023/10/23 08:22:36;;;;;;;19.30;4.80;;;;;;;;;;4922135;29;20553;-63
2023/10/23 08:25:05;;;;;;;13.63;5.65;;;;;;;;;;4920651;29;20601;-62
2023/10/23 08:27:33;;;;;;;7.25;5.50;;;;;;;;;;4918743;29;20206;-62
2023/10/23 08:30:02;;;;;;;8.65;5.43;;;;;;;;;;4918482;29;20224;-62
2023/10/23 08:32:30;;;;;;;9.05;5.50;;;;;;;;;;4923014;29;20228;-62
2023/10/23 08:34:59;;;;;;;8.38;5.35;;;;;;;;;;4924859;29;20255;-62
2023/10/23 08:37:27;;;;;;;15.50;6.10;;;;;;;;;;4928461;29;20206;-62
2023/10/23 08:39:56;;;;;;;19.58;5.40;;;;;;;;;;4926439;29;20303;-62
2023/10/23 08:42:25;;;;;;;5.93;4.75;;;;;;;;;;4928932;29;20708;-62
2023/10/23 08:44:53;;;;;;;6.32;4.40;;;;;;;;;;4926906;29;20222;-62
2023/10/23 08:47:21;;;;;;;7.80;5.40;;;;;;;;;;4926955;29;20201;-63
2023/10/23 08:49:51;;;;;;;9.40;4.57;;;;;;;;;;4927297;29;20202;-62
2023/10/23 08:52:21;;;;;;;6.88;4.40;;;;;;;;;;4929165;29;20232;-62
2023/10/23 08:54:50;;;;;;;6.55;4.28;;;;;;;;;;4928190;29;20619;-62
2023/10/23 08:57:21;;;;;;;6.05;5.30;;;;;;;;;;4926508;29;20559;-63
2023/10/23 08:59:49;;;;;;;9.80;4.95;;;;;;;;;;4927766;29;20580;-62
2023/10/23 09:02:17;;;;;;;7.15;4.90;;;;;;;;;;4927332;29;20214;-62
2023/10/23 09:04:45;;;;;;;7.15;4.53;;;;;;;;;;4927416;29;20200;-63
2023/10/23 09:07:14;;;;;;;6.30;4.85;;;;;;;;;;4929180;29;20204;-63
2023/10/23 09:09:42;;;;;;;5.75;3.78;;;;;;;;;;4929360;29;20205;-62
2023/10/23 09:12:30;;;;;;;15.65;5.93;;;;;;;;;;4926590;29;20227;-65
2023/10/23 09:15:00;;;;;;;8.18;5.72;;;;;;;;;;4925967;29;20236;-61
2023/10/23 09:17:28;;;;;;;10.75;5.45;;;;;;;;;;4923749;29;20201;-63
2023/10/23 09:19:56;;;;;;;9.10;5.65;;;;;;;;;;4925375;29;20209;-62
2023/10/23 09:22:29;;;;;;;8.20;4.90;;;;;;;;;;4927149;29;20201;-63
2023/10/23 09:24:57;;;;;;;6.22;4.80;;;;;;;;;;4927856;29;20208;-62
2023/10/23 09:27:26;;;;;;;8.52;5.45;;;;;;;;;;4935092;29;20251;-61
2023/10/23 09:30:03;;;;;;;16.70;6.57;;;;;;;;;;4937215;29;20575;-61
2023/10/23 09:32:53;;;;;;;10.48;5.63;;;;;;;;;;4925204;29;20235;-64
2023/10/23 09:35:21;;;;;;;12.32;7.07;;;;;;;;;;4940339;29;20230;-63
2023/10/23 09:37:49;;;;;;;13.52;5.82;;;;;;;;;;4939356;29;20213;-63
2023/10/23 09:40:18;;;;;;;7.78;6.35;;;;;;;;;;4939147;29;20227;-63
2023/10/23 09:42:46;;;;;;;7.63;5.45;;;;;;;;;;4937799;29;20211;-62
2023/10/23 09:45:16;;;;;;;7.13;5.88;;;;;;;;;;4939673;29;20205;-62
2023/10/23 09:47:47;;;;;;;12.95;5.80;;;;;;;;;;4933661;29;20209;-63
2023/10/23 09:50:15;;;;;;;10.07;5.70;;;;;;;;;;4920553;29;20192;-63
2023/10/23 09:52:44;;;;;;;9.33;5.43;;;;;;;;;;4923620;29;20221;-64
2023/10/23 09:55:13;;;;;;;10.65;7.63;;;;;;;;;;4932406;29;20628;-63
2023/10/23 09:57:41;;;;;;;9.30;6.50;;;;;;;;;;4937599;29;20239;-63
2023/10/23 10:00:14;;;;;;;15.93;6.38;;;;;;;;;;4937256;29;20196;-61
2023/10/23 10:02:46;;;;;;;6.97;6.28;;;;;;;;;;4936821;29;20189;-62
2023/10/23 10:05:18;;;;;;;10.57;7.13;;;;;;;;;;4925867;29;20966;-63
2023/10/23 10:07:51;;;;;;;11.50;5.65;;;;;;;;;;4936072;29;20636;-63
2023/10/23 10:10:19;;;;;;;13.23;6.55;;;;;;;;;;4938893;29;20268;-63
2023/10/23 10:12:48;;;;;;;9.05;6.65;;;;;;;;;;4937934;29;20713;-64
2023/10/23 10:15:16;;;;;;;8.95;6.70;;;;;;;;;;4924584;29;21059;-63
2023/10/23 10:17:47;;;;;;;10.70;5.87;;;;;;;;;;4932016;29;20205;-61
2023/10/23 10:20:15;;;;;;;16.80;6.85;;;;;;;;;;4932950;29;20716;-64
2023/10/23 10:22:45;;;;;;;16.65;6.00;;;;;;;;;;4939132;29;20574;-61
2023/10/23 10:25:15;;;;;;;10.40;7.10;;;;;;;;;;4937362;29;20211;-63
2023/10/23 10:27:43;;;;;;;9.70;6.07;;;;;;;;;;4929304;29;20206;-63
2023/10/23 10:30:40;;;;;;;9.45;6.95;;;;;;;;;;4930225;29;20197;-62
2023/10/23 10:33:17;;;;;;;9.95;6.00;;;;;;;;;;4934444;29;20674;-61
2023/10/23 10:35:50;;;;;;;9.18;5.70;;;;;;;;;;4929528;29;20223;-61
2023/10/23 10:38:23;;;;;;;8.23;5.15;;;;;;;;;;4918557;29;20193;-61
2023/10/23 10:41:11;;;;;;;7.13;4.85;;;;;;;;;;4925091;29;20622;-61
2023/10/23 10:43:39;;;;;;;5.70;4.88;;;;;;;;;;4935453;29;20238;-62
2023/10/23 10:46:15;;;;;;;5.15;4.65;;;;;;;;;;4925969;29;20252;-63
2023/10/23 10:48:45;;;;;;;9.20;4.72;;;;;;;;;;4935627;29;20275;-63
2023/10/23 10:51:17;;;;;;;9.30;5.57;;;;;;;;;;4933285;29;20741;-61
2023/10/23 10:53:47;;;;;;;13.23;5.85;;;;;;;;;;4937215;29;21155;-63
2023/10/23 10:56:16;;;;;;;8.45;5.93;;;;;;;;;;4928274;29;20272;-63
2023/10/23 10:58:45;;;;;;;14.77;5.30;;;;;;;;;;4930872;29;20215;-62
2023/10/23 11:01:13;;;;;;;7.13;6.30;;;;;;;;;;4928141;29;20205;-61
2023/10/23 11:03:42;;;;;;;10.77;5.67;;;;;;;;;;4930530;29;20705;-63
2023/10/23 11:06:11;;;;;;;8.87;5.37;;;;;;;;;;4935605;29;20686;-62
2023/10/23 11:08:40;;;;;;;7.87;5.70;;;;;;;;;;4936690;29;21234;-62
2023/10/23 11:11:09;;;;;;;8.97;6.00;;;;;;;;;;4936072;29;20620;-61
2023/10/23 11:13:37;;;;;;;8.20;4.90;;;;;;;;;;4930438;29;20672;-61
2023/10/23 11:16:06;;;;;;;9.93;5.00;;;;;;;;;;4930628;29;20665;-63
2023/10/23 11:18:34;;;;;;;8.90;5.30;;;;;;;;;;4932467;29;20611;-61
2023/10/23 11:21:03;;;;;;;10.23;5.00;;;;;;;;;;4929874;29;20733;-62
2023/10/23 11:23:33;;;;;;;11.03;5.73;;;;;;;;;;4932956;29;20599;-62
2023/10/23 11:26:01;;;;;;;8.53;4.93;;;;;;;;;;4929789;29;20641;-62
2023/10/23 11:28:30;;;;;;;7.40;5.07;;;;;;;;;;4928013;29;20709;-62
2023/10/23 11:30:59;;;;;;;13.17;5.60;;;;;;;;;;4932874;29;20644;-62
2023/10/23 11:33:28;;;;;;;11.13;6.43;;;;;;;;;;4936508;29;20672;-62
2023/10/23 11:35:56;;;;;;;7.60;4.53;;;;;;;;;;4930568;29;20637;-63
2023/10/23 11:38:25;;;;;;;10.10;6.10;;;;;;;;;;4936920;29;20647;-62
2023/10/23 11:40:54;;;;;;;9.30;5.03;;;;;;;;;;4934727;29;21135;-61
2023/10/23 11:43:23;;;;;;;10.10;5.03;;;;;;;;;;4928355;29;20736;-62
2023/10/23 11:45:51;;;;;;;9.50;4.90;;;;;;;;;;4931391;29;20672;-61
2023/10/23 11:48:19;;;;;;;6.20;3.90;;;;;;;;;;4917676;29;20625;-61
2023/10/23 11:50:48;;;;;;;4.70;4.07;;;;;;;;;;4924780;29;21125;-61
2023/10/23 11:53:17;;;;;;;7.10;3.90;;;;;;;;;;4935964;29;21148;-64
2023/10/23 11:55:46;;;;;;;3.70;3.27;;;;;;;;;;4926208;29;20725;-63
2023/10/23 11:58:16;;;;;;;5.33;3.87;;;;;;;;;;4937794;29;20986;-62
2023/10/23 12:00:44;;;;;;;11.93;3.80;;;;;;;;;;4936094;29;21225;-63
2023/10/23 12:03:13;;;;;;;5.90;3.13;;;;;;;;;;4935196;29;20994;-62
2023/10/23 12:05:42;;;;;;;12.70;4.00;;;;;;;;;;4935506;29;20714;-63
2023/10/23 12:08:10;;;;;;;3.33;2.93;;;;;;;;;;4936012;29;20628;-62
2023/10/23 12:10:38;;;;;;;3.80;3.23;;;;;;;;;;4937098;29;20627;-60
2023/10/23 12:13:07;;;;;;;3.30;2.77;;;;;;;;;;4937065;29;20702;-61
2023/10/23 12:15:36;;;;;;;6.80;3.40;;;;;;;;;;4936954;29;20676;-61
2023/10/23 12:18:05;;;;;;;7.30;2.90;;;;;;;;;;4936684;29;20641;-62
2023/10/23 12:20:33;;;;;;;4.23;3.00;;;;;;;;;;4933033;29;20641;-62
2023/10/23 12:23:02;;;;;;;9.80;3.83;;;;;;;;;;4929038;29;20629;-63
2023/10/23 12:25:30;;;;;;;14.67;4.83;;;;;;;;;;4925844;29;21183;-62
2023/10/23 12:27:58;;;;;;;7.00;4.77;;;;;;;;;;4934530;29;21272;-62
2023/10/23 12:30:26;;;;;;;10.87;3.80;;;;;;;;;;4936535;29;20642;-61
2023/10/23 12:32:56;;;;;;;3.90;3.60;;;;;;;;;;4939713;29;20638;-63
2023/10/23 12:35:25;;;;;;;11.00;4.50;;;;;;;;;;4927251;29;21057;-61
2023/10/23 12:37:53;;;;;;;8.63;7.73;;;;;;;;;;4938455;29;20601;-61
2023/10/23 12:40:21;;;;;;;3.37;3.07;;;;;;;;;;4937127;29;20642;-62
2023/10/23 12:42:49;;;;;;;4.70;3.10;;;;;;;;;;4927239;29;20639;-65
2023/10/23 12:45:17;;;;;;;7.93;4.40;;;;;;;;;;4923451;29;20637;-63
2023/10/23 12:47:46;;;;;;;3.23;2.87;;;;;;;;;;4935624;29;20632;-64
2023/10/23 12:50:15;;;;;;;8.37;2.40;;;;;;;;;;4938820;29;20691;-63
2023/10/23 12:52:44;;;;;;;6.57;3.57;;;;;;;;;;4939381;29;20707;-64
2023/10/23 12:55:13;;;;;;;6.07;3.20;;;;;;;;;;4935979;29;20668;-62
2023/10/23 12:57:42;;;;;;;4.10;2.60;;;;;;;;;;4938234;29;20701;-61
2023/10/23 13:00:13;;;;;;;7.23;3.37;;;;;;;;;;4928615;29;20622;-62
2023/10/23 13:02:41;;;;;;;5.03;2.67;;;;;;;;;;4926176;29;20606;-63
2023/10/23 13:05:10;;;;;;;7.30;2.50;;;;;;;;;;4925595;29;20620;-62
2023/10/23 13:07:40;;;;;;;7.37;3.20;;;;;;;;;;4920888;29;21239;-61
2023/10/23 13:10:08;;;;;;;6.30;3.00;;;;;;;;;;4921590;29;21190;-62
2023/10/23 13:12:37;;;;;;;7.70;3.00;;;;;;;;;;4925358;29;20619;-63
2023/10/23 13:15:05;;;;;;;2.93;2.50;;;;;;;;;;4921080;29;20669;-62
2023/10/23 13:17:34;;;;;;;5.03;3.40;;;;;;;;;;4931957;29;21023;-62
2023/10/23 13:20:06;;;;;;;5.57;3.00;;;;;;;;;;4939673;29;20629;-62
2023/10/23 13:22:34;;;;;;;8.43;3.20;;;;;;;;;;4922796;29;21217;-61
2023/10/23 13:25:06;;;;;;;5.30;3.20;;;;;;;;;;4935049;29;21216;-63
2023/10/23 13:27:34;;;;;;;7.33;3.33;;;;;;;;;;4928691;29;20614;-63
2023/10/23 13:30:04;;;;;;;8.50;5.20;;;;;;;;;;4936988;29;21011;-63
2023/10/23 13:32:33;;;;;;;5.87;3.73;;;;;;;;;;4935159;29;20623;-64
2023/10/23 13:35:04;;;;;;;9.10;3.90;;;;;;;;;;4937551;29;20666;-63
2023/10/23 13:37:32;;;;;;;11.17;5.70;;;;;;;;;;4924251;29;20600;-63
2023/10/23 13:40:01;;;;;;;8.37;4.60;;;;;;;;;;4927498;29;20621;-62
2023/10/23 13:42:30;;;;;;;8.97;5.03;;;;;;;;;;4930703;29;20704;-62
2023/10/23 13:44:58;;;;;;;4.63;3.73;;;;;;;;;;4935069;29;20647;-63
2023/10/23 13:47:27;;;;;;;9.20;4.20;;;;;;;;;;4935744;29;20640;-62
2023/10/23 13:49:55;;;;;;;11.30;4.03;;;;;;;;;;4935324;29;20613;-62
2023/10/23 13:52:24;;;;;;;6.23;3.57;;;;;;;;;;4929235;29;20701;-62
2023/10/23 13:54:52;;;;;;;4.67;3.77;;;;;;;;;;4931375;29;20686;-62
2023/10/23 13:57:20;;;;;;;7.80;4.07;;;;;;;;;;4919647;29;20636;-63
2023/10/23 13:59:50;;;;;;;14.27;5.47;;;;;;;;;;4922043;29;21207;-63
2023/10/23 14:02:18;;;;;;;4.50;3.60;;;;;;;;;;4934409;29;20629;-63
2023/10/23 14:04:46;;;;;;;7.43;4.10;;;;;;;;;;4926335;29;20633;-63
2023/10/23 14:07:15;;;;;;;9.03;4.10;;;;;;;;;;4926831;29;20955;-62
2023/10/23 14:09:43;;;;;;;12.10;4.50;;;;;;;;;;4929340;29;20784;-62
2023/10/23 14:12:11;;;;;;;9.53;4.97;;;;;;;;;;4924646;29;20623;-62
2023/10/23 14:14:39;;;;;;;9.50;5.70;;;;;;;;;;4932875;29;20664;-62
2023/10/23 14:17:09;;;;;;;8.83;5.53;;;;;;;;;;4926756;29;20605;-62
2023/10/23 14:19:37;;;;;;;8.97;5.60;;;;;;;;;;4924109;29;20637;-63
2023/10/23 14:22:05;;;;;;;19.03;6.87;;;;;;;;;;4936856;29;20616;-62
2023/10/23 14:24:34;;;;;;;8.20;6.80;;;;;;;;;;4921284;29;20622;-64
2023/10/23 14:27:02;;;;;;;10.03;6.23;;;;;;;;;;4919604;29;20624;-61
2023/10/23 14:29:31;;;;;;;8.43;6.50;;;;;;;;;;4923661;29;20641;-62
2023/10/23 14:32:00;;;;;;;11.97;6.67;;;;;;;;;;4934550;29;20715;-61
2023/10/23 14:34:30;;;;;;;15.07;7.77;;;;;;;;;;4920102;29;21239;-62
2023/10/23 14:36:58;;;;;;;11.47;6.40;;;;;;;;;;4937243;29;20663;-62
2023/10/23 14:39:27;;;;;;;15.67;6.93;;;;;;;;;;4932681;29;20653;-62
2023/10/23 14:41:55;;;;;;;13.97;9.47;;;;;;;;;;4922769;29;20625;-62
2023/10/23 14:44:24;;;;;;;12.30;10.60;;;;;;;;;;4927178;29;21070;-62
2023/10/23 14:46:52;;;;;;;11.90;9.50;;;;;;;;;;4932579;29;20668;-62
2023/10/23 14:49:21;;;;;;;18.17;11.37;;;;;;;;;;4934661;29;20678;-62